Time;durP1;ratioP1;P1;durP2;ratioP2;P2;SDS_P1;SDS_P2;PMS_P1;PMS_P2;Temp;Humidity;BMP_temperature;BMP_pressure;BME280_temperature;BME280_humidity;BME280_pressure;Samples;Min_cycle;Max_cycle;Signal;HPM_P1;HPM_P2
2022/04/24 00:01:47;;;;;;;;;5.00;5.00;;;;;22.81;95.80;99530.53;5056545;28;45479;-64
2022/04/24 00:04:13;;;;;;;;;4.33;4.33;;;;;22.80;96.14;99529.66;5059231;28;47438;-65
2022/04/24 00:06:39;;;;;;;;;7.33;6.00;;;;;22.80;95.96;99532.34;5076753;28;50840;-64
2022/04/24 00:09:05;;;;;;;;;5.00;5.00;;;;;22.80;95.88;99540.41;5074982;28;45484;-65
2022/04/24 00:11:31;;;;;;;;;6.33;6.33;;;;;22.78;95.46;99533.38;5076694;28;45612;-64
2022/04/24 00:13:56;;;;;;;;;6.00;6.00;;;;;22.81;95.65;99533.22;5075138;28;46428;-63
2022/04/24 00:16:23;;;;;;;;;7.00;7.00;;;;;22.78;96.00;99531.56;5076578;28;45273;-63
2022/04/24 00:18:49;;;;;;;;;6.00;6.00;;;;;22.81;95.71;99527.81;5077108;28;45428;-63
2022/04/24 00:21:15;;;;;;;;;8.00;8.00;;;;;22.79;95.82;99532.41;5076667;28;50839;-64
2022/04/24 00:23:41;;;;;;;;;8.00;7.00;;;;;22.80;95.68;99520.69;5076467;28;45763;-63
2022/04/24 00:26:06;;;;;;;;;5.00;5.00;;;;;22.80;95.42;99518.88;5077056;28;45445;-63
2022/04/24 00:28:38;;;;;;;;;9.00;6.33;;;;;22.80;95.40;99526.06;5076617;28;45579;-63
2022/04/24 00:31:03;;;;;;;;;9.33;7.00;;;;;22.80;95.92;99518.00;5071417;28;45884;-63
2022/04/24 00:33:29;;;;;;;;;7.00;7.00;;;;;22.80;95.66;99520.69;5076411;28;46411;-64
2022/04/24 00:35:55;;;;;;;;;9.00;7.67;;;;;22.79;95.27;99525.22;5075982;28;45492;-64
2022/04/24 00:38:20;;;;;;;;;6.00;4.67;;;;;22.78;95.90;99512.72;5076729;28;45240;-63
2022/04/24 00:40:47;;;;;;;;;8.00;7.00;;;;;22.79;95.55;99524.34;5076241;28;48126;-65
2022/04/24 00:43:13;;;;;;;;;7.67;7.00;;;;;22.79;95.95;99524.34;5076234;28;47254;-64
2022/04/24 00:45:38;;;;;;;;;5.67;5.67;;;;;22.78;95.84;99523.47;5075888;28;45734;-63
2022/04/24 00:48:04;;;;;;;;;7.00;5.00;;;;;22.78;95.63;99531.56;5076708;28;45322;-63
2022/04/24 00:50:30;;;;;;;;;6.33;6.00;;;;;22.78;95.70;99519.94;5076699;28;45437;-63
2022/04/24 00:52:55;;;;;;;;;7.00;7.00;;;;;22.77;95.91;99524.44;5075851;28;46579;-63
2022/04/24 00:55:23;;;;;;;;;7.00;6.00;;;;;22.78;95.92;99525.31;5076116;28;45358;-63
2022/04/24 00:57:49;;;;;;;;;8.33;8.00;;;;;22.78;95.69;99534.25;5075389;28;45382;-63
2022/04/24 01:00:18;;;;;;;;;7.33;6.33;;;;;22.78;95.31;99533.38;5073867;28;45500;-63
2022/04/24 01:02:43;;;;;;;;;5.33;5.33;;;;;22.78;95.61;99533.38;5075707;28;47311;-65
2022/04/24 01:05:09;;;;;;;;;5.00;5.00;;;;;22.77;95.08;99545.97;5074757;28;51894;-62
2022/04/24 01:07:34;;;;;;;;;10.00;6.00;;;;;22.76;95.54;99530.78;5075774;28;45379;-62
2022/04/24 01:10:03;;;;;;;;;7.00;7.00;;;;;22.74;95.30;99532.69;5074546;28;45334;-64
2022/04/24 01:12:28;;;;;;;;;6.00;6.00;;;;;22.74;95.44;99536.28;5076010;28;47709;-64
2022/04/24 01:14:55;;;;;;;;;7.33;7.33;;;;;22.74;95.51;99535.38;5075922;28;45419;-63
2022/04/24 01:17:21;;;;;;;;;8.00;5.00;;;;;22.74;94.96;99543.44;5068067;28;45315;-65
2022/04/24 01:19:47;;;;;;;;;8.00;8.00;;;;;22.72;95.28;99540.00;5076229;28;45526;-63
2022/04/24 01:22:12;;;;;;;;;5.33;5.33;;;;;22.71;94.90;99541.81;5057051;28;47731;-63
2022/04/24 01:24:38;;;;;;;;;6.00;6.00;;;;;22.71;95.15;99546.34;5075624;28;50647;-64
2022/04/24 01:27:04;;;;;;;;;7.00;7.00;;;;;22.70;95.12;99542.78;5075259;28;52653;-65
2022/04/24 01:29:33;;;;;;;;;6.00;6.00;;;;;22.69;95.16;99542.84;5067956;28;45588;-63
2022/04/24 01:31:59;;;;;;;;;8.33;7.33;;;;;22.70;95.08;99544.63;5075165;28;46599;-63
2022/04/24 01:34:24;;;;;;;;;7.33;6.00;;;;;22.69;94.71;99545.56;5075696;28;45312;-64
2022/04/24 01:36:50;;;;;;;;;7.33;7.33;;;;;22.68;94.67;99554.59;5075893;28;45536;-64
2022/04/24 01:39:17;;;;;;;;;7.00;6.00;;;;;;;;5076101;28;45509;-64
2022/04/24 01:41:42;;;;;;;;;6.00;6.00;;;;;22.66;94.70;99551.13;5075586;28;47728;-63
2022/04/24 01:44:08;;;;;;;;;5.67;5.67;;;;;22.66;94.98;99553.81;5075363;28;45578;-64
2022/04/24 01:46:34;;;;;;;;;6.00;6.00;;;;;22.65;95.04;99549.41;5075603;28;45529;-63
2022/04/24 01:48:59;;;;;;;;;6.00;5.00;;;;;22.64;94.32;99553.06;5077481;28;45652;-64
2022/04/24 01:51:24;;;;;;;;;5.67;5.67;;;;;22.64;94.77;99553.91;5078995;28;45624;-63
2022/04/24 01:53:50;;;;;;;;;5.67;5.67;;;;;22.64;94.34;99555.75;5078162;28;45408;-63
2022/04/24 01:56:18;;;;;;;;;7.67;6.33;;;;;22.65;94.81;99554.78;5079647;28;45328;-64
2022/04/24 01:58:43;;;;;;;;;6.33;6.33;;;;;22.62;94.33;99552.25;5069382;28;45283;-63
2022/04/24 02:01:15;;;;;;;;;5.33;5.33;;;;;22.63;94.37;99562.06;5078283;28;55471;-63
2022/04/24 02:03:41;;;;;;;;;7.67;7.67;;;;;22.63;94.19;99560.25;5078423;28;45665;-63
2022/04/24 02:06:06;;;;;;;;;7.00;6.00;;;;;22.62;93.93;99568.41;5079018;28;45331;-64
2022/04/24 02:08:37;;;;;;;;;6.67;6.67;;;;;22.61;94.38;99570.22;5078765;28;45297;-64
2022/04/24 02:11:06;;;;;;;;;5.00;5.00;;;;;22.61;94.32;99575.63;5073825;28;46619;-62
2022/04/24 02:13:34;;;;;;;;;5.00;5.00;;;;;22.61;94.15;99569.38;5079226;28;45501;-65
2022/04/24 02:15:59;;;;;;;;;7.00;5.00;;;;;22.61;94.06;99574.75;5078376;28;45605;-63
2022/04/24 02:18:25;;;;;;;;;7.00;7.00;;;;;22.61;94.43;99574.75;5079192;28;45540;-63
2022/04/24 02:20:50;;;;;;;;;5.33;5.33;;;;;22.61;93.84;99580.13;5078447;28;46410;-62
2022/04/24 02:23:17;;;;;;;;;7.00;7.00;;;;;22.60;94.10;99575.72;5078309;28;51210;-63
2022/04/24 02:25:45;;;;;;;;;6.00;6.00;;;;;22.59;94.41;99574.00;5078890;28;45395;-63
2022/04/24 02:28:11;;;;;;;;;6.33;6.00;;;;;22.59;93.78;99576.69;5077272;28;45560;-62
2022/04/24 02:30:37;;;;;;;;;6.00;6.00;;;;;22.57;94.50;99576.75;5078320;28;53066;-63
2022/04/24 02:33:03;;;;;;;;;6.00;6.00;;;;;22.58;93.88;99585.69;5080012;28;45584;-63
2022/04/24 02:35:32;;;;;;;;;5.00;5.00;;;;;22.57;94.14;99583.94;5079359;28;45391;-63
2022/04/24 02:37:58;;;;;;;;;5.67;5.67;;;;;22.56;93.98;99579.53;5078339;28;45528;-62
2022/04/24 02:40:23;;;;;;;;;6.33;6.33;;;;;22.56;94.30;99588.47;5078111;28;46257;-63
2022/04/24 02:42:52;;;;;;;;;4.33;4.33;;;;;22.56;94.50;99587.59;5078350;28;45530;-63
2022/04/24 02:45:19;;;;;;;;;7.00;6.00;;;;;22.56;94.15;99591.16;5078519;28;45351;-63
2022/04/24 02:47:45;;;;;;;;;7.33;5.67;;;;;22.55;93.83;99585.88;5079069;28;45493;-63
2022/04/24 02:50:12;;;;;;;;;8.33;7.00;;;;;22.55;94.23;99593.94;5077771;28;46554;-63
2022/04/24 02:53:04;;;;;;;;;7.00;7.00;;;;;22.56;93.78;99588.47;5078043;28;45468;-63
2022/04/24 02:55:29;;;;;;;;;7.00;6.00;;;;;22.56;93.96;99593.84;5068533;28;45572;-63
2022/04/24 02:57:56;;;;;;;;;6.67;5.67;;;;;22.54;94.38;99593.09;5076018;28;45636;-63
2022/04/24 03:00:24;;;;;;;;;5.33;5.33;;;;;22.56;94.77;99601.06;5068614;28;46559;-63
2022/04/24 03:02:51;;;;;;;;;6.00;6.00;;;;;22.59;94.87;99601.75;5077990;28;45516;-62
2022/04/24 03:05:22;;;;;;;;;7.00;7.00;;;;;22.61;94.89;99598.97;5076737;28;46955;-64
2022/04/24 03:07:47;;;;;;;;;8.00;7.00;;;;;22.62;94.67;99600.69;5077745;28;45790;-63
2022/04/24 03:10:14;;;;;;;;;6.33;5.00;;;;;22.64;94.51;99606.88;5076481;28;46800;-63
2022/04/24 03:12:42;;;;;;;;;7.00;7.00;;;;;22.65;94.72;99600.53;5077968;28;45532;-64
2022/04/24 03:15:09;;;;;;;;;7.00;7.00;;;;;;;;5078045;28;45553;-65
2022/04/24 03:17:35;;;;;;;;;7.33;6.33;;;;;22.68;94.10;99601.19;5075850;28;45478;-63
2022/04/24 03:20:03;;;;;;;;;7.00;6.00;;;;;22.70;94.55;99606.50;5078146;28;47323;-63
2022/04/24 03:22:30;;;;;;;;;6.67;6.67;;;;;22.71;94.24;99610.94;5059524;28;45308;-63
2022/04/24 03:24:56;;;;;;;;;6.00;6.00;;;;;22.72;94.37;99612.66;5076969;28;45264;-64
2022/04/24 03:27:22;;;;;;;;;6.00;6.00;;;;;22.72;94.23;99618.03;5077423;28;45570;-63
2022/04/24 03:29:47;;;;;;;;;5.67;5.67;;;;;22.73;93.61;99620.63;5077087;28;54997;-63
2022/04/24 03:32:13;;;;;;;;;6.00;5.00;;;;;22.73;93.99;99620.63;5077769;28;45541;-63
2022/04/24 03:34:38;;;;;;;;;6.00;6.00;;;;;22.77;94.26;99625.84;5077325;28;45602;-63
2022/04/24 03:37:04;;;;;;;;;6.67;6.67;;;;;22.75;93.76;99615.19;5077801;28;45626;-63
2022/04/24 03:39:30;;;;;;;;;5.33;5.33;;;;;22.76;93.57;99616.91;5077187;28;46597;-63
2022/04/24 03:41:56;;;;;;;;;6.00;6.00;;;;;22.77;93.78;99617.78;5077810;28;45391;-63
2022/04/24 03:44:22;;;;;;;;;8.33;6.00;;;;;22.76;93.91;99614.22;5077321;28;45509;-63
2022/04/24 03:46:50;;;;;;;;;6.33;6.33;;;;;22.77;93.39;99617.78;5076973;28;45548;-63
2022/04/24 03:49:16;;;;;;;;;6.00;5.00;;;;;22.77;93.34;99618.63;5076794;28;46096;-63
2022/04/24 03:51:42;;;;;;;;;7.00;6.00;;;;;22.78;93.34;99620.38;5077068;28;45533;-65
2022/04/24 03:54:09;;;;;;;;;8.00;7.00;;;;;22.78;93.80;99617.69;5077317;28;45294;-64
2022/04/24 03:56:35;;;;;;;;;6.00;6.00;;;;;22.79;93.56;99629.31;5069165;28;45539;-62
2022/04/24 03:59:01;;;;;;;;;6.00;6.00;;;;;22.78;93.25;99619.50;5073592;28;46650;-63
2022/04/24 04:01:26;;;;;;;;;5.67;5.67;;;;;22.79;93.31;99623.91;5071806;28;45567;-64
2022/04/24 04:03:52;;;;;;;;;7.33;7.33;;;;;22.80;93.43;99633.72;5077397;28;45769;-63
2022/04/24 04:06:21;;;;;;;;;7.33;7.33;;;;;22.78;93.17;99636.50;5056566;28;45501;-63
2022/04/24 04:08:47;;;;;;;;;5.67;5.67;;;;;22.77;93.29;99634.78;5053637;28;47437;-62
2022/04/24 04:11:13;;;;;;;;;7.33;7.00;;;;;22.77;92.93;99634.78;5055072;28;56499;-63
2022/04/24 04:13:39;;;;;;;;;9.00;8.00;;;;;22.77;93.10;99636.63;5056428;28;45227;-62
2022/04/24 04:16:05;;;;;;;;;7.00;7.00;;;;;22.76;93.22;99646.50;5056669;28;45568;-63
2022/04/24 04:18:30;;;;;;;;;7.00;7.00;;;;;22.74;93.06;99638.53;5056410;28;46568;-63
2022/04/24 04:20:55;;;;;;;;;7.67;7.33;;;;;22.74;93.03;99641.22;5056179;28;45503;-63
2022/04/24 04:23:21;;;;;;;;;9.67;7.00;;;;;22.73;93.24;99641.28;5072356;28;45331;-63
2022/04/24 04:25:56;;;;;;;;;6.67;6.00;;;;;22.72;92.98;99640.44;5055650;28;45508;-63
2022/04/24 04:28:21;;;;;;;;;9.00;6.67;;;;;22.72;92.81;99642.25;5050169;28;47224;-63
2022/04/24 04:30:47;;;;;;;;;8.67;7.00;;;;;22.71;92.82;99643.22;5055816;28;46170;-65
2022/04/24 04:33:12;;;;;;;;;8.00;7.00;;;;;22.71;92.69;99649.47;5056133;28;45327;-63
2022/04/24 04:35:38;;;;;;;;;4.33;3.33;;;;;22.70;92.52;99650.44;5055563;28;46372;-63
2022/04/24 04:38:04;;;;;;;;;9.67;7.00;;;;;22.69;92.92;99647.81;5056246;28;47583;-63
2022/04/24 04:40:30;;;;;;;;;8.00;8.00;;;;;22.69;92.74;99647.81;5055307;28;45480;-63
2022/04/24 04:42:56;;;;;;;;;9.00;7.33;;;;;22.69;92.65;99647.81;5056098;28;45458;-64
2022/04/24 04:45:21;;;;;;;;;6.67;6.67;;;;;22.67;92.87;99655.13;5056411;28;45489;-63
2022/04/24 04:47:47;;;;;;;;;10.00;7.00;;;;;22.67;92.77;99660.50;5054673;28;46396;-64
2022/04/24 04:50:13;;;;;;;;;7.00;7.00;;;;;22.67;92.84;99660.50;5054583;28;45293;-63
2022/04/24 04:52:39;;;;;;;;;7.67;6.00;;;;;;;;5055200;28;45422;-62
2022/04/24 04:55:22;;;;;;;;;8.00;7.00;;;;;22.67;92.82;99665.88;5054717;28;45409;-63
2022/04/24 04:57:48;;;;;;;;;8.00;8.00;;;;;22.66;92.66;99669.53;5051152;28;47436;-63
2022/04/24 05:00:21;;;;;;;;;7.33;7.33;;;;;22.65;92.58;99673.19;5050809;28;45555;-64
2022/04/24 05:02:47;;;;;;;;;8.33;7.00;;;;;22.64;92.93;99672.31;5052342;28;45557;-63
2022/04/24 05:05:13;;;;;;;;;7.00;7.00;;;;;22.65;92.63;99668.66;5256884;22;46075;-63
2022/04/24 05:07:38;;;;;;;;;8.00;8.00;;;;;22.65;92.70;99681.25;5092830;27;46421;-63
2022/04/24 05:10:04;;;;;;;;;7.67;7.67;;;;;22.64;92.66;99682.22;5092818;27;45376;-65
2022/04/24 05:12:30;;;;;;;;;9.67;8.00;;;;;22.63;92.55;99686.69;5095980;27;46099;-63
2022/04/24 05:15:06;;;;;;;;;9.33;8.00;;;;;22.63;92.58;99686.69;5095121;27;45601;-63
2022/04/24 05:17:36;;;;;;;;;9.00;7.00;;;;;22.63;92.21;99691.22;5095410;27;45573;-64
2022/04/24 05:20:10;;;;;;;;;7.00;7.00;;;;;22.63;92.37;99696.59;5074780;27;45569;-63
2022/04/24 05:22:36;;;;;;;;;8.67;7.33;;;;;22.62;92.54;99702.94;5095097;27;45609;-64
2022/04/24 05:25:02;;;;;;;;;11.00;6.33;;;;;22.62;92.53;99700.25;5098387;27;45451;-63
2022/04/24 05:27:27;;;;;;;;;8.00;8.00;;;;;22.62;92.61;99716.41;5098884;27;46238;-64
2022/04/24 05:29:53;;;;;;;;;7.00;7.00;;;;;22.61;92.45;99707.47;5098227;27;45375;-63
2022/04/24 05:32:18;;;;;;;;;8.67;8.33;;;;;22.61;92.13;99714.66;5098992;27;49122;-63
2022/04/24 05:34:44;;;;;;;;;9.00;7.33;;;;;22.61;92.57;99712.84;5099863;27;45476;-63
2022/04/24 05:37:09;;;;;;;;;7.33;6.00;;;;;22.61;92.10;99725.44;5099511;27;46177;-63
2022/04/24 05:39:35;;;;;;;;;7.00;7.00;;;;;22.60;92.26;99721.88;5099556;27;45468;-64
2022/04/24 05:42:00;;;;;;;;;7.00;7.00;;;;;22.60;92.33;99718.31;5099557;27;45297;-64
2022/04/24 05:44:26;;;;;;;;;9.00;7.33;;;;;22.59;92.36;99716.59;5099526;27;45519;-65
2022/04/24 05:46:52;;;;;;;;;8.00;7.33;;;;;22.60;92.39;99726.38;5105470;27;47273;-64
2022/04/24 05:49:18;;;;;;;;;6.67;6.67;;;;;22.59;92.43;99724.66;5099600;27;45537;-64
2022/04/24 05:51:43;;;;;;;;;7.00;7.00;;;;;22.59;92.35;99724.66;5101712;27;45272;-63
2022/04/24 05:54:10;;;;;;;;;7.00;7.00;;;;;22.57;92.29;99722.03;5101731;27;45636;-64
2022/04/24 05:56:44;;;;;;;;;8.33;7.67;;;;;22.57;92.17;99730.09;5099230;27;46866;-63
2022/04/24 05:59:10;;;;;;;;;8.33;7.33;;;;;22.58;92.20;99725.59;5098968;27;45436;-63
2022/04/24 06:01:35;;;;;;;;;6.67;6.67;;;;;22.58;92.51;99739.03;5099554;27;45219;-63
2022/04/24 06:04:01;;;;;;;;;6.00;6.00;;;;;22.57;92.23;99732.78;5099667;27;45482;-63
2022/04/24 06:06:29;;;;;;;;;6.67;6.67;;;;;22.59;92.15;99735.41;5098916;27;51074;-63
2022/04/24 06:08:54;;;;;;;;;8.33;7.33;;;;;22.57;91.88;99731.94;5098225;27;45582;-64
2022/04/24 06:11:19;;;;;;;;;7.00;7.00;;;;;22.58;91.96;99736.34;5098307;27;45459;-62
2022/04/24 06:13:45;;;;;;;;;9.00;9.00;;;;;22.58;92.13;99737.22;5099015;27;45785;-63
2022/04/24 06:16:11;;;;;;;;;9.00;7.67;;;;;22.58;91.97;99734.53;5099107;27;45786;-63
2022/04/24 06:18:36;;;;;;;;;7.33;7.33;;;;;22.58;92.15;99742.59;5099037;27;45639;-63
2022/04/24 06:21:01;;;;;;;;;9.00;8.00;;;;;22.57;91.91;99740.88;5098390;27;45789;-63
2022/04/24 06:23:28;;;;;;;;;5.00;5.00;;;;;22.58;91.84;99747.09;5098873;27;45324;-62
2022/04/24 06:25:55;;;;;;;;;9.00;7.33;;;;;22.57;91.93;99748.94;5093964;27;47361;-62
2022/04/24 06:28:20;;;;;;;;;7.00;7.00;;;;;22.58;91.91;99750.66;5096068;27;45521;-62
2022/04/24 06:30:47;;;;;;;;;6.00;5.00;;;;;22.58;91.85;99750.66;5080395;27;45334;-62
2022/04/24 06:33:13;;;;;;;;;7.00;7.00;;;;;22.59;91.67;99756.94;5093447;27;45592;-62
2022/04/24 06:35:39;;;;;;;;;8.00;8.00;;;;;22.57;91.64;99757.00;5097943;27;46648;-63
2022/04/24 06:38:07;;;;;;;;;7.00;7.00;;;;;22.59;91.87;99754.25;5098300;27;45506;-62
2022/04/24 06:40:36;;;;;;;;;9.00;7.33;;;;;22.55;91.78;99758.06;5077446;27;45534;-63
2022/04/24 06:43:06;;;;;;;;;8.00;8.00;;;;;22.58;91.62;99772.19;5100247;27;45616;-63
2022/04/24 06:45:31;;;;;;;;;9.00;8.00;;;;;22.58;91.60;99766.81;5107828;27;46597;-63
2022/04/24 06:47:58;;;;;;;;;8.00;6.67;;;;;22.59;91.97;99771.25;5088522;27;46045;-63
2022/04/24 06:50:25;;;;;;;;;9.00;7.67;;;;;22.59;91.95;99765.00;5101792;27;45417;-63
2022/04/24 06:53:01;;;;;;;;;7.33;7.00;;;;;22.59;91.53;99763.19;5105494;27;45381;-61
2022/04/24 06:55:31;;;;;;;;;8.00;7.00;;;;;22.58;91.96;99765.94;5103310;27;45761;-61
2022/04/24 06:57:57;;;;;;;;;8.67;8.00;;;;;22.58;91.74;99765.94;5098294;27;45696;-65
2022/04/24 07:00:24;;;;;;;;;11.00;7.67;;;;;22.60;91.57;99766.75;5097647;27;45584;-63
2022/04/24 07:02:50;;;;;;;;;10.67;6.67;;;;;22.60;91.45;99761.38;5098068;27;45374;-63
2022/04/24 07:05:16;;;;;;;;;7.33;6.67;;;;;22.60;91.70;99761.38;5097893;27;46015;-64
2022/04/24 07:07:41;;;;;;;;;8.67;7.67;;;;;22.59;91.75;99759.63;5100471;27;46061;-63
2022/04/24 07:10:08;;;;;;;;;11.00;9.00;;;;;22.59;91.51;99765.88;5097568;27;45476;-63
2022/04/24 07:12:51;;;;;;;;;8.00;7.00;;;;;22.58;91.59;99766.81;5100388;27;45528;-61
2022/04/24 07:15:17;;;;;;;;;7.33;7.33;;;;;22.58;91.66;99771.31;5094427;27;46444;-60
2022/04/24 07:17:43;;;;;;;;;8.00;8.00;;;;;22.57;91.67;99766.91;5097465;27;45651;-62
2022/04/24 07:20:10;;;;;;;;;8.67;7.33;;;;;22.58;91.38;99776.72;5097972;27;45393;-61
2022/04/24 07:22:49;;;;;;;;;8.00;8.00;;;;;22.56;91.32;99775.94;5085507;27;45697;-61
2022/04/24 07:25:17;;;;;;;;;9.33;8.00;;;;;22.56;91.56;99778.63;5096617;27;46461;-62
2022/04/24 07:27:43;;;;;;;;;10.00;9.00;;;;;22.55;91.80;99783.13;5097072;27;45474;-61
2022/04/24 07:30:15;;;;;;;;;9.00;7.00;;;;;22.56;91.70;99790.25;5094092;27;45478;-61
2022/04/24 07:32:43;;;;;;;;;9.67;8.00;;;;;22.57;91.78;99794.69;5089328;27;45521;-61
2022/04/24 07:35:11;;;;;;;;;11.00;7.33;;;;;22.59;91.88;99795.47;5092716;27;46485;-60
2022/04/24 07:37:37;;;;;;;;;8.33;7.67;;;;;22.62;91.92;99791.72;5092529;27;45577;-61
2022/04/24 07:40:04;;;;;;;;;9.67;9.67;;;;;22.64;91.75;99795.22;5089340;27;46115;-61
2022/04/24 07:42:30;;;;;;;;;11.33;10.00;;;;;22.65;91.91;99797.81;5092693;27;45428;-61
2022/04/24 07:44:55;;;;;;;;;9.00;8.67;;;;;22.68;91.95;99800.31;5087464;27;46427;-61
2022/04/24 07:47:20;;;;;;;;;9.67;9.67;;;;;22.71;91.57;99799.31;5087531;27;45564;-61
2022/04/24 07:49:46;;;;;;;;;9.67;9.00;;;;;22.72;91.51;99795.66;5089691;27;45960;-61
2022/04/24 07:52:12;;;;;;;;;11.00;9.33;;;;;22.74;91.26;99802.72;5096262;27;45292;-61
2022/04/24 07:54:37;;;;;;;;;9.00;9.00;;;;;22.78;91.71;99802.53;5087421;27;45735;-61
2022/04/24 07:57:03;;;;;;;;;9.67;9.67;;;;;22.80;91.38;99805.97;5089728;27;47648;-62
2022/04/24 07:59:28;;;;;;;;;10.00;8.33;;;;;22.81;91.44;99803.22;5082744;27;45605;-61
2022/04/24 08:01:53;;;;;;;;;13.00;10.67;;;;;22.82;91.33;99799.56;5097621;27;45627;-61
2022/04/24 08:04:19;;;;;;;;;10.00;10.00;;;;;22.85;91.37;99803.91;5097020;27;46324;-62
2022/04/24 08:06:44;;;;;;;;;10.33;9.33;;;;;22.86;91.12;99809.22;5096274;27;45564;-61
2022/04/24 08:09:09;;;;;;;;;11.00;11.00;;;;;22.86;91.22;99817.28;5094653;27;45357;-62
2022/04/24 08:11:37;;;;;;;;;8.67;8.67;;;;;22.88;90.80;99819.94;5089394;27;46439;-62
2022/04/24 08:14:03;;;;;;;;;13.33;10.67;;;;;22.89;90.77;99818.97;5093218;27;46134;-62
2022/04/24 08:16:28;;;;;;;;;8.33;8.00;;;;;22.90;90.57;99812.63;5094039;27;45535;-62
2022/04/24 08:18:54;;;;;;;;;9.67;9.67;;;;;22.89;90.84;99817.13;5092446;27;45458;-62
2022/04/24 08:21:22;;;;;;;;;12.00;8.33;;;;;22.90;90.78;99815.31;5095001;27;45394;-62
2022/04/24 08:23:47;;;;;;;;;10.00;9.67;;;;;22.91;90.77;99817.94;5095795;27;45562;-62
2022/04/24 08:26:13;;;;;;;;;13.00;11.33;;;;;22.90;90.40;99816.19;5096357;27;45354;-63
2022/04/24 08:28:38;;;;;;;;;14.00;12.00;;;;;22.92;90.28;99818.81;5095077;27;45528;-62
2022/04/24 08:31:04;;;;;;;;;13.00;12.00;;;;;22.93;90.36;99817.84;5096313;27;45530;-62
2022/04/24 08:33:29;;;;;;;;;10.67;9.00;;;;;22.93;90.01;99823.22;5094277;27;46226;-61
2022/04/24 08:35:54;;;;;;;;;12.00;12.00;;;;;22.93;90.37;99820.53;5096217;27;45456;-62
2022/04/24 08:38:20;;;;;;;;;10.33;10.33;;;;;22.92;90.38;99822.38;5096571;27;45477;-62
2022/04/24 08:40:46;;;;;;;;;10.33;8.67;;;;;22.92;90.12;99821.50;5095447;27;45547;-62
2022/04/24 08:43:15;;;;;;;;;11.33;11.33;;;;;22.91;90.08;99819.78;5088456;27;46486;-62
2022/04/24 08:45:42;;;;;;;;;12.33;12.33;;;;;22.91;90.07;99825.16;5088215;27;45489;-62
2022/04/24 08:48:08;;;;;;;;;12.00;12.00;;;;;22.91;90.09;99827.84;5095420;27;45439;-62
2022/04/24 08:50:33;;;;;;;;;14.33;11.67;;;;;22.91;89.50;99823.31;5096170;27;45373;-62
2022/04/24 08:52:59;;;;;;;;;13.00;12.00;;;;;22.91;89.85;99828.72;5094366;27;47506;-62
2022/04/24 08:55:29;;;;;;;;;12.00;11.33;;;;;22.90;89.69;99826.94;5095110;27;45451;-62
2022/04/24 08:57:57;;;;;;;;;11.67;10.67;;;;;22.90;89.43;99829.63;5095146;27;45322;-62
2022/04/24 09:00:23;;;;;;;;;12.67;10.00;;;;;22.89;89.52;99825.22;5095631;27;45520;-62
2022/04/24 09:02:50;;;;;;;;;16.67;12.00;;;;;22.90;89.37;99831.47;5094652;27;46493;-62
2022/04/24 09:05:15;;;;;;;;;13.67;12.33;;;;;22.89;89.58;99835.97;5076004;27;45525;-61
2022/04/24 09:07:43;;;;;;;;;12.00;11.00;;;;;22.89;89.58;99833.28;5096196;27;45442;-62
2022/04/24 09:10:12;;;;;;;;;13.00;11.33;;;;;22.90;89.56;99837.72;5095714;27;45481;-62
2022/04/24 09:12:41;;;;;;;;;13.00;12.00;;;;;22.89;89.45;99838.69;5089092;27;47824;-61
2022/04/24 09:15:07;;;;;;;;;11.67;11.67;;;;;22.90;89.55;99842.22;5090444;27;45424;-62
2022/04/24 09:17:34;;;;;;;;;16.00;13.00;;;;;22.90;89.44;99840.41;5095459;27;45291;-61
2022/04/24 09:20:00;;;;;;;;;13.33;12.33;;;;;22.91;89.40;99841.31;5085849;27;45472;-62
2022/04/24 09:22:26;;;;;;;;;13.67;10.67;;;;;22.91;89.27;99847.56;5097821;27;46501;-62
2022/04/24 09:24:56;;;;;;;;;11.67;10.67;;;;;22.91;89.55;99852.94;5095452;27;45392;-62
2022/04/24 09:27:30;;;;;;;;;15.00;12.00;;;;;22.90;89.54;99853.00;5096072;27;45410;-62
2022/04/24 09:30:13;;;;;;;;;12.00;12.00;;;;;22.91;89.28;99854.75;5095071;27;45358;-62
2022/04/24 09:32:47;;;;;;;;;17.33;11.33;;;;;22.90;89.00;99851.19;5095900;27;45358;-63
2022/04/24 09:35:29;;;;;;;;;13.00;13.00;;;;;22.91;89.12;99863.72;5095374;27;45527;-62
2022/04/24 09:38:14;;;;;;;;;13.67;12.00;;;;;22.91;89.29;99866.41;5094203;27;45279;-62
2022/04/24 09:40:44;;;;;;;;;12.67;12.00;;;;;22.90;88.72;99863.78;5097580;27;45588;-62
2022/04/24 09:43:11;;;;;;;;;20.00;18.33;;;;;22.88;88.05;99861.16;5101534;27;47487;-63
2022/04/24 09:45:37;;;;;;;;;29.67;25.00;;;;;22.80;85.04;99865.19;5096437;27;45348;-63
2022/04/24 09:48:13;;;;;;;;;22.67;21.67;;;;;22.66;80.31;99860.59;5078248;27;46091;-63
2022/04/24 09:50:38;;;;;;;;;18.67;17.67;;;;;22.48;79.33;99863.31;5090658;27;45374;-62
2022/04/24 09:53:04;;;;;;;;;26.67;24.00;;;;;22.31;80.11;99863.31;5091710;27;46517;-63
2022/04/24 09:55:30;;;;;;;;;22.67;21.00;;;;;22.18;76.45;99863.13;5084547;27;45660;-61
2022/04/24 09:57:55;;;;;;;;;30.00;26.00;;;;;22.06;78.41;99869.09;5072759;27;45693;-62
2022/04/24 10:00:21;;;;;;;;;30.67;28.33;;;;;22.00;78.32;99868.53;5068555;27;45807;-62
2022/04/24 10:02:50;;;;;;;;;22.33;20.33;;;;;21.92;78.25;99866.25;5075621;27;47243;-61
2022/04/24 10:05:16;;;;;;;;;28.00;24.00;;;;;21.85;78.23;99876.44;5101708;27;46364;-61
2022/04/24 10:07:42;;;;;;;;;24.33;21.33;;;;;21.81;79.95;99882.06;5091872;27;45559;-61
2022/04/24 10:10:08;;;;;;;;;27.33;24.00;;;;;21.78;79.61;99879.50;5094383;27;45485;-61
2022/04/24 10:12:34;;;;;;;;;28.67;24.00;;;;;21.75;79.52;99885.91;5084119;27;47437;-61
2022/04/24 10:15:12;;;;;;;;;39.33;30.00;;;;;21.74;78.95;99883.31;5094751;27;45409;-62
2022/04/24 10:17:57;;;;;;;;;22.33;21.00;;;;;21.72;78.24;99891.44;5095484;27;45478;-61
2022/04/24 10:20:34;;;;;;;;;30.00;26.00;;;;;21.67;77.57;99883.59;5095998;27;45837;-61
2022/04/24 10:23:00;;;;;;;;;26.67;22.67;;;;;21.64;76.85;99891.84;5096261;27;47193;-61
2022/04/24 10:25:44;;;;;;;;;21.67;21.33;;;;;21.61;77.05;99893.78;5095077;27;45780;-61
2022/04/24 10:28:17;;;;;;;;;21.67;20.33;;;;;21.58;76.01;99902.03;5093552;27;45448;-61
2022/04/24 10:30:47;;;;;;;;;23.00;23.00;;;;;21.55;76.42;99896.78;5100073;27;45521;-62
2022/04/24 10:33:18;;;;;;;;;24.00;22.00;;;;;21.52;76.61;99902.28;5094914;27;47091;-61
2022/04/24 10:35:48;;;;;;;;;31.33;26.67;;;;;21.50;75.36;99904.19;5094335;27;45538;-61
2022/04/24 10:38:14;;;;;;;;;21.33;21.33;;;;;21.48;75.76;99903.41;5095567;27;45993;-62
2022/04/24 10:40:39;;;;;;;;;25.33;23.67;;;;;21.48;75.91;99906.09;5094271;27;45382;-61
2022/04/24 10:43:07;;;;;;;;;28.00;22.33;;;;;21.45;74.56;99913.34;5095096;27;46110;-60
2022/04/24 10:45:44;;;;;;;;;20.67;19.67;;;;;21.44;75.54;99922.34;5096355;27;45553;-62
2022/04/24 10:48:14;;;;;;;;;27.00;23.33;;;;;21.44;75.39;99914.28;5112246;27;45451;-61
2022/04/24 10:50:50;;;;;;;;;25.33;23.00;;;;;21.43;75.14;99923.31;5090810;27;45615;-61
2022/04/24 10:53:16;;;;;;;;;21.33;21.33;;;;;21.43;75.06;99925.13;5092918;27;46600;-62
2022/04/24 10:55:42;;;;;;;;;28.00;24.67;;;;;21.42;74.69;99928.75;5098372;27;46264;-61
2022/04/24 10:58:09;;;;;;;;;28.33;23.33;;;;;21.40;74.47;99925.25;5081112;27;45488;-61
2022/04/24 11:00:35;;;;;;;;;22.33;21.00;;;;;21.41;75.10;99924.31;5086220;27;45385;-61
2022/04/24 11:03:19;;;;;;;;;28.67;23.33;;;;;21.44;74.59;99930.41;5094793;27;46399;-62
2022/04/24 11:05:46;;;;;;;;;23.67;22.33;;;;;21.43;74.35;99931.34;5082282;27;46647;-61
2022/04/24 11:08:21;;;;;;;;;22.67;22.67;;;;;21.45;74.74;99934.81;5099404;27;45611;-60
2022/04/24 11:10:48;;;;;;;;;20.67;20.67;;;;;21.45;73.92;99926.78;5103729;27;45518;-61
2022/04/24 11:13:18;;;;;;;;;24.67;20.67;;;;;21.43;74.35;99936.72;5079991;27;47593;-61
2022/04/24 11:15:47;;;;;;;;;24.33;20.33;;;;;21.47;73.64;99939.28;5098265;27;45454;-61
2022/04/24 11:18:21;;;;;;;;;20.67;20.67;;;;;21.47;74.00;99937.47;5097538;27;45270;-61
2022/04/24 11:21:04;;;;;;;;;20.00;20.00;;;;;21.48;74.23;99939.19;5097437;27;45524;-60
2022/04/24 11:23:35;;;;;;;;;22.67;21.67;;;;;21.49;73.91;99940.94;5091825;27;45884;-60
2022/04/24 11:26:02;;;;;;;;;24.67;21.67;;;;;21.48;72.89;99936.50;5101958;27;46248;-60
2022/04/24 11:28:41;;;;;;;;;26.33;21.33;;;;;21.51;73.61;99940.84;5099804;27;45389;-60
2022/04/24 11:31:14;;;;;;;;;30.00;26.67;;;;;21.53;73.60;99944.34;5100304;27;45468;-60